Lanigan, Canada
Current Conditions -  °F | °C
As of 6:00 AM on Tuesday 21 Oct 2014 (Local Time) from CYXE Reporting Station
Scattered Clouds Scattered Clouds  
Wind Chill: 39°   Ceiling: Unl
Heat Index: 45°   Visibility: 15mi
Dew Point: 39°   Wind: 12mph
Humidity: 81%   Direction: 180°S
Pressure: 29.61"   Gusts: NA
Location:  51.85°N, 105.03°W
Report Text: CYXE 211200Z 18010KT 15SM SCT210 07/04 A2961 RMK CI3 SLP038
Loading
Personal Weather Stations






























Interactive Weather Map
Tropical Storm Tracking
New forecast layout! Learn more

10-Day Weather Forecast

Advertisements
Track Severe Weather on mobile